ADDS TAF Data INFO
IDs: Format: Raw Decoded Include METARs

Data at: 1720 UTC 26 Apr 2018

KSEZ 261715Z AUTO 19005KT 10SM CLR 27/M04 A3010 RMK AO2

KSEZ 261720Z 2618/2718 04008KT P6SM SKC
  FM261900 22008KT P6SM SCT130
  FM270600 04011KT P6SM FEW110